Pagrindinis puslapis
METAR-TAF:

METAR-TAF

Oro uostai :

Dubajaus tarptautinis oro uostas

Dubajus, Jungtiniai Arabų Emyratai

platuma: 25-15-10N, ilguma: 055-21-52E, Aukštis: 8 m

Dabartinis oras

Ataskaita buvo paskelbta 48 minutes, ne 23:00 UTC
Vėjas 6 kt iš Vakarų/Šiaurės Vakarų
Temperatūra 25°C
Drėgmė 74%
Slėgis 1009 hPa
Matomumas 10 km arba daugiau
nėra debesų žemiau 1500 m ir nėra kamuolinių lietaus debesų

METAR: OMDB 072300Z 30006KT CAVOK 25/20 Q1009 NOSIG

Laikas: 03:48 (23:48 UTC)

Prognozė

Ataskaita buvo paskelbta 52 minutes, ne 22:56 UTC
Prognozė galioja nuo 08 metu 00 UTC su 09 metu 06 UTC
Vėjas 2 kt nuo kintamojo kryptimis
Matomumas: 8000 m
Tikimybė 30% :
Laikinai
nuo 08 metu 01 UTC su 08 metu 05 UTC
Matomumas: 3000 m
Su prošvaistėmis ne aukštis 800 ft
rūkana
Tapsmas
nuo 08 metu 07 UTC su 08 metu 09 UTC
Vėjas 10 kt iš Šiaurės Vakarų
Tapsmas
nuo 08 metu 16 UTC su 08 metu 18 UTC
Vėjas 7 kt iš Rytų

TAF: OMDB 072256Z 0800/0906 VRB02KT 8000 NSC PROB30 TEMPO 0801/0805 3000 BR BKN008 BECMG 0807/0809 32010KT BECMG 0816/0818 10007KT

Orai ataskaitas ir orų prognozės (METAR, TAF).

turimą stotys yra geltonos ir raudonos taškus žemėlapyje.

Perkelti pele per norėdami pamatyti stoties vardą.

Tada spustelėkite, norėdami matyti oro stebėjimo ir prognozės.

Norėdami pakeisti žemėlapį: spustelėkite ant žalios mygtukų su juodo kryžiaus žemyn,; žalią mygtuką su brūkšneliu, jei norite nutolinti; arba žalių rodyklių gretimoms žemėlapius.


METAR-TAF: